Grand Prairie, TX

6:43 AM CST on December 19, 2014 (GMT -0600)
Grand Prairie Municipal | Change Station
CLOSE
Current Station
Airport
Location: Grand Prairie,
Elevation: 591 ft
Nearby Weather Stations

Elev 591 ft 32.70 °N, 97.05 °W | Updated 1 hour ago

Rain
Rain
46 °F
Feels Like 40 °F
N
10
Wind Variable Wind from North

Today
High -- | Low -- °F
--% Chance of Precip.
Yesterday
High -- | Low -- °F
Precip. -- in
7:25 AM 5:25 PM
Waning Crescent, 8% visible
Pressure 30.16 in
Visibility 5.0 miles
Clouds Overcast 700 ft
Windchill 40 °F
Dew Point 46 °F
Humidity 100%
Rainfall 0.00 in
Snow Depth Not available.
UV 0 out of 12
Pollen 8.00 out of 12
Air Quality Not available.
Flu Activity Not available.
METAR KGPM 191135Z AUTO 36009KT 5SM OVC007 08/08 A3016 RMK AO2 T00750075

More Conditions Fewer Conditions

Pressure 30.16 in
Visibility 5.0 miles
Clouds Overcast 700 ft
Windchill 40 °F
Dew Point 46 °F
Humidity 100%
Rainfall 0.00 in
Snow Depth Not available.
UV 0 out of 12
Pollen 8.00 out of 12
Air Quality Not available.
Flu Activity Not available.
METAR KGPM 191135Z AUTO 36009KT 5SM OVC007 08/08 A3016 RMK AO2 T00750075

More Conditions Fewer Conditions

Nowcast | as of 6:34 am CST on December 19, 2014

Scattered showers and a few embedded thunderstorms will continue to overspread areas generally east of a Gainesville to Mineral Wells to Goldthwaite line this morning as an upper level trough moves across the Southern Plains. Brief periods of heavy rain...cloud to ground lightning...and very small hail will be possible...especially with the stronger thunderstorms. No severe weather is anticipated. Otherwise...skies will remain mostly cloudy and temperatures will remain in the low to mid 40s.

×

10-Day Weather Forecast

Almanac

Astronomy

Dec. 19, 2014 Rise Set
Actual Time
Civil Twilight
Nautical Twilight
Astronomical Twilight
Moon
Length of Visible Light
Length of Day
Tomorrow will be .
, % of the Moon is Illuminated

Today's Extremes

State Highs State Lows

Community

WunderPhotos

Upload Photos

1,778,975 photos uploaded!

WunderBlogs® & News

Nearby

Air Quality

  Air Quality AQ Index Pollutant
Not available.

Snow Depth

Station Depth Elevation

Earthquake Activity

City Distance Mag. Time & Date
Minimum magnitude displayed is 2.5.

Coastal Water Temperatures

Place Temperature

Nearby Weather Stations